createdAt,value
2019-05-23T00:02:36.644Z,100.00
2019-05-23T00:05:55.869Z,100.00
2019-05-23T00:08:44.724Z,100.00
2019-05-23T00:11:31.269Z,100.00
2019-05-23T00:14:08.490Z,100.00
2019-05-23T00:16:42.578Z,100.00
2019-05-23T00:19:14.356Z,100.00
2019-05-23T00:21:45.501Z,100.00
2019-05-23T00:24:15.748Z,100.00
2019-05-23T00:26:46.282Z,100.00
2019-05-23T00:29:17.752Z,100.00
2019-05-23T00:32:03.059Z,100.00
2019-05-23T00:34:35.022Z,100.00
2019-05-23T00:37:07.037Z,100.00
2019-05-23T00:39:37.921Z,100.00
2019-05-23T00:42:10.231Z,100.00
2019-05-23T00:44:41.102Z,100.00
2019-05-23T00:47:13.721Z,100.00
2019-05-23T00:49:44.323Z,100.00
2019-05-23T00:52:15.274Z,100.00
2019-05-23T00:54:45.558Z,100.00
2019-05-23T00:57:16.238Z,100.00
2019-05-23T00:59:47.973Z,100.00
2019-05-23T01:02:19.812Z,100.00
2019-05-23T01:04:51.475Z,100.00
2019-05-23T01:07:22.629Z,100.00
2019-05-23T01:09:52.859Z,100.00
2019-05-23T01:12:25.119Z,100.00
2019-05-23T01:14:56.073Z,100.00
2019-05-23T01:17:28.982Z,100.00
2019-05-23T01:20:01.171Z,100.00
2019-05-23T01:22:31.380Z,100.00
2019-05-23T01:25:02.336Z,100.00
2019-05-23T01:27:32.565Z,100.00
2019-05-23T01:30:05.280Z,100.00
2019-05-23T01:32:49.940Z,100.00
2019-05-23T01:35:22.790Z,100.00
2019-05-23T01:37:53.557Z,100.00
2019-05-23T01:40:23.773Z,100.00
2019-05-23T01:42:55.549Z,100.00
2019-05-23T01:45:27.552Z,100.00
2019-05-23T01:47:58.996Z,100.00
2019-05-23T01:50:30.500Z,100.00
2019-05-23T01:53:01.655Z,100.00
2019-05-23T01:55:32.576Z,100.00
2019-05-23T01:58:03.336Z,100.00
2019-05-23T02:00:34.790Z,100.00
2019-05-23T02:03:05.332Z,100.00
2019-05-23T02:05:37.284Z,100.00
2019-05-23T02:08:10.661Z,100.00
2019-05-23T02:10:41.418Z,100.00
2019-05-23T02:13:12.550Z,100.00
2019-05-23T02:15:44.005Z,100.00
2019-05-23T02:19:38.037Z,100.00
2019-05-23T02:22:08.608Z,100.00
2019-05-23T02:24:39.239Z,100.00
2019-05-23T02:27:10.661Z,100.00
2019-05-23T02:29:41.984Z,100.00
2019-05-23T02:32:12.867Z,100.00
2019-05-23T02:34:44.245Z,100.00
2019-05-23T02:37:45.742Z,100.00
2019-05-23T02:40:25.667Z,100.00
2019-05-23T02:42:59.813Z,100.00
2019-05-23T02:45:43.152Z,100.00
2019-05-23T02:48:20.099Z,100.00
2019-05-23T02:50:55.884Z,100.00
2019-05-23T02:53:30.713Z,100.00
2019-05-23T02:56:05.608Z,100.00
2019-05-23T02:59:03.185Z,100.00
2019-05-23T03:02:02.413Z,100.00
2019-05-23T03:04:34.710Z,100.00
2019-05-23T03:07:06.573Z,100.00
2019-05-23T03:09:38.779Z,100.00
2019-05-23T03:12:11.055Z,100.00
2019-05-23T03:14:42.864Z,100.00
2019-05-23T03:17:17.892Z,100.00
2019-05-23T03:19:59.594Z,100.00
2019-05-23T03:22:48.825Z,100.00
2019-05-23T03:26:03.873Z,100.00
2019-05-23T03:28:40.366Z,100.00
2019-05-23T03:31:30.723Z,100.00
2019-05-23T03:33:49.757Z,100.00
2019-05-23T03:36:20.493Z,100.00
2019-05-23T03:38:53.265Z,100.00
2019-05-23T03:41:23.673Z,100.00
2019-05-23T03:43:54.276Z,100.00
2019-05-23T03:46:27.100Z,100.00
2019-05-23T03:48:58.383Z,100.00
2019-05-23T03:51:29.004Z,100.00
2019-05-23T03:54:01.834Z,100.00
2019-05-23T03:56:33.586Z,100.00
2019-05-23T03:59:06.428Z,100.00
2019-05-23T04:01:48.057Z,100.00
2019-05-23T04:04:09.920Z,100.00
2019-05-23T04:06:41.307Z,100.00
2019-05-23T04:09:11.860Z,100.00
2019-05-23T04:11:42.568Z,100.00
2019-05-23T04:14:13.805Z,100.00
2019-05-23T04:16:44.038Z,100.00
2019-05-23T04:19:14.480Z,100.00
2019-05-23T04:21:45.591Z,100.00
2019-05-23T04:24:16.743Z,100.00
2019-05-23T04:26:47.800Z,100.00
2019-05-23T04:29:18.231Z,100.00
2019-05-23T04:32:06.103Z,100.00
2019-05-23T04:34:21.058Z,100.00
2019-05-23T04:36:51.906Z,100.00
2019-05-23T04:39:22.136Z,100.00
2019-05-23T04:41:52.517Z,100.00
2019-05-23T04:44:22.767Z,100.00
2019-05-23T04:46:54.518Z,100.00
2019-05-23T04:49:25.255Z,100.00
2019-05-23T04:51:56.157Z,100.00
2019-05-23T04:54:26.590Z,100.00
2019-05-23T04:56:57.732Z,100.00
2019-05-23T04:59:27.987Z,100.00
2019-05-23T05:01:58.967Z,100.00
2019-05-23T05:04:30.123Z,100.00
2019-05-23T05:07:00.752Z,100.00
2019-05-23T05:09:32.421Z,100.00
2019-05-23T05:12:04.271Z,100.00
2019-05-23T05:14:34.620Z,100.00
2019-05-23T05:17:07.182Z,100.00
2019-05-23T05:19:37.476Z,100.00
2019-05-23T05:22:07.740Z,100.00
2019-05-23T05:24:40.233Z,100.00
2019-05-23T05:27:11.025Z,100.00
2019-05-23T05:29:41.302Z,100.00
2019-05-23T05:32:11.710Z,100.00
2019-05-23T05:34:42.575Z,100.00
2019-05-23T05:37:13.172Z,100.00
2019-05-23T05:39:43.516Z,100.00
2019-05-23T05:42:14.636Z,100.00
2019-05-23T05:44:45.595Z,100.00
2019-05-23T05:47:15.842Z,100.00
2019-05-23T05:49:46.804Z,100.00
2019-05-23T05:52:18.257Z,100.00
2019-05-23T05:54:48.836Z,100.00
2019-05-23T05:57:19.124Z,100.00
2019-05-23T05:59:49.402Z,100.00
2019-05-23T06:02:20.301Z,100.00
2019-05-23T06:04:50.883Z,100.00
2019-05-23T06:07:27.653Z,100.00
2019-05-23T06:09:59.190Z,100.00
2019-05-23T06:12:30.333Z,100.00
2019-05-23T06:15:00.622Z,100.00
2019-05-23T06:17:33.104Z,100.00
2019-05-23T06:20:03.472Z,100.00
2019-05-23T06:22:34.385Z,100.00
2019-05-23T06:25:06.180Z,100.00
2019-05-23T06:27:36.621Z,100.00
2019-05-23T06:30:09.390Z,100.00
2019-05-23T06:32:39.978Z,100.00
2019-05-23T06:35:10.408Z,100.00
2019-05-23T06:37:40.676Z,100.00
2019-05-23T06:40:12.531Z,100.00
2019-05-23T06:42:42.780Z,100.00
2019-05-23T06:45:13.642Z,100.00
2019-05-23T06:47:44.553Z,100.00
2019-05-23T06:50:17.590Z,100.00
2019-05-23T06:52:48.224Z,100.00
2019-05-23T06:55:18.641Z,100.00
2019-05-23T06:57:48.970Z,100.00
2019-05-23T07:00:22.130Z,100.00
2019-05-23T07:02:52.324Z,100.00
2019-05-23T07:05:26.234Z,100.00
2019-05-23T07:07:57.574Z,100.00
2019-05-23T07:10:28.858Z,100.00
2019-05-23T07:12:59.355Z,100.00
2019-05-23T07:15:30.341Z,100.00
2019-05-23T07:18:01.959Z,100.00
2019-05-23T07:20:32.362Z,100.00
2019-05-23T07:23:03.037Z,100.00
2019-05-23T07:25:33.593Z,100.00
2019-05-23T07:28:03.978Z,100.00
2019-05-23T07:30:34.940Z,100.00
2019-05-23T07:33:05.722Z,100.00
2019-05-23T07:35:36.334Z,100.00
2019-05-23T07:38:07.225Z,100.00
2019-05-23T07:40:37.562Z,100.00
2019-05-23T07:43:08.417Z,100.00
2019-05-23T07:45:44.268Z,100.00
2019-05-23T07:48:15.188Z,100.00
2019-05-23T07:50:45.795Z,100.00
2019-05-23T07:53:21.907Z,100.00
2019-05-23T07:55:52.975Z,100.00
2019-05-23T07:58:23.625Z,100.00
2019-05-23T08:00:58.077Z,100.00
2019-05-23T08:03:31.008Z,100.00
2019-05-23T08:06:01.847Z,100.00
2019-05-23T08:08:32.879Z,100.00
2019-05-23T08:11:03.543Z,100.00
2019-05-23T08:13:33.948Z,100.00
2019-05-23T08:16:04.921Z,100.00
2019-05-23T08:18:35.258Z,100.00
2019-05-23T08:21:05.797Z,99.44
2019-05-23T08:23:36.475Z,97.33
2019-05-23T08:26:07.392Z,96.33
2019-05-23T08:28:56.307Z,96.70
2019-05-23T08:31:10.359Z,94.20
2019-05-23T08:33:40.697Z,94.97
2019-05-23T08:36:11.181Z,94.97
2019-05-23T08:38:42.819Z,92.65
2019-05-23T08:41:14.095Z,93.17
2019-05-23T08:43:44.552Z,88.50
2019-05-23T08:46:14.971Z,90.24
2019-05-23T08:48:45.750Z,89.62
2019-05-23T08:51:16.965Z,87.34
2019-05-23T08:53:47.430Z,84.75
2019-05-23T08:56:19.720Z,85.27
2019-05-23T08:58:50.801Z,84.52
2019-05-23T09:01:21.319Z,84.66
2019-05-23T09:03:51.851Z,81.68
2019-05-23T09:06:22.135Z,81.49
2019-05-23T09:08:53.624Z,78.43
2019-05-23T09:11:24.543Z,78.83
2019-05-23T09:13:55.235Z,78.69
2019-05-23T09:16:25.452Z,78.47
2019-05-23T09:18:55.642Z,77.86
2019-05-23T09:21:25.986Z,76.08
2019-05-23T09:23:56.282Z,75.68
2019-05-23T09:26:27.267Z,73.39
2019-05-23T09:28:58.366Z,72.97
2019-05-23T09:31:29.333Z,72.37
2019-05-23T09:33:59.585Z,70.01
2019-05-23T09:36:29.923Z,68.57
2019-05-23T09:39:00.279Z,64.71
2019-05-23T09:41:30.636Z,62.23
2019-05-23T09:44:01.050Z,59.70
2019-05-23T09:46:31.288Z,56.97
2019-05-23T09:49:01.553Z,55.17
2019-05-23T09:51:31.837Z,55.97
2019-05-23T09:54:02.130Z,54.57
2019-05-23T09:56:32.940Z,52.91
2019-05-23T09:59:03.658Z,50.21
2019-05-23T10:01:34.576Z,52.96
2019-05-23T10:04:05.540Z,49.80
2019-05-23T10:06:35.904Z,46.39
2019-05-23T10:09:08.402Z,47.15
2019-05-23T10:11:38.648Z,46.80
2019-05-23T10:14:12.721Z,45.67
2019-05-23T10:16:43.074Z,46.51
2019-05-23T10:19:13.753Z,43.54
2019-05-23T10:21:44.078Z,43.43
2019-05-23T10:24:14.670Z,43.23
2019-05-23T10:26:44.925Z,42.56
2019-05-23T10:29:15.998Z,42.57
2019-05-23T10:31:46.264Z,43.29
2019-05-23T10:34:16.756Z,41.99
2019-05-23T10:36:47.102Z,41.51
2019-05-23T10:39:19.929Z,45.06
2019-05-23T10:41:50.166Z,43.07
2019-05-23T10:44:20.541Z,41.80
2019-05-23T10:46:51.182Z,42.91
2019-05-23T10:49:21.715Z,40.84
2019-05-23T10:51:52.368Z,38.02
2019-05-23T10:54:22.751Z,37.60
2019-05-23T10:56:53.535Z,40.48
2019-05-23T10:59:24.587Z,38.04
2019-05-23T11:01:55.613Z,38.21
2019-05-23T11:04:25.909Z,38.53
2019-05-23T11:06:57.357Z,36.74
2019-05-23T11:09:37.146Z,36.37
2019-05-23T11:12:00.067Z,34.65
2019-05-23T11:14:31.042Z,34.66
2019-05-23T11:17:01.485Z,34.79
2019-05-23T11:19:31.823Z,35.09
2019-05-23T11:22:02.196Z,34.38
2019-05-23T11:24:32.763Z,33.47
2019-05-23T11:27:03.529Z,32.70
2019-05-23T11:29:34.132Z,32.52
2019-05-23T11:32:06.149Z,32.58
2019-05-23T11:34:37.006Z,32.83
2019-05-23T11:37:07.210Z,32.47
2019-05-23T11:39:42.163Z,33.63
2019-05-23T11:42:10.270Z,29.68
2019-05-23T11:44:40.595Z,31.63
2019-05-23T11:47:11.068Z,30.51
2019-05-23T11:49:42.337Z,32.18
2019-05-23T11:52:13.356Z,29.35
2019-05-23T11:54:44.568Z,28.86
2019-05-23T11:57:15.489Z,27.65
2019-05-23T11:59:45.725Z,29.73
2019-05-23T12:02:31.014Z,27.02
2019-05-23T12:05:02.916Z,28.05
2019-05-23T12:07:35.153Z,28.05
2019-05-23T12:10:07.532Z,27.28
2019-05-23T12:12:37.820Z,28.74
2019-05-23T12:15:13.800Z,27.21
2019-05-23T12:17:44.036Z,27.16
2019-05-23T12:20:15.097Z,25.67
2019-05-23T12:22:45.466Z,26.35
2019-05-23T12:25:23.085Z,25.96
2019-05-23T12:27:49.265Z,24.53
2019-05-23T12:30:22.321Z,24.85
2019-05-23T12:32:52.595Z,24.36
2019-05-23T12:35:22.825Z,24.93
2019-05-23T12:37:53.010Z,24.02
2019-05-23T12:40:23.609Z,24.79
2019-05-23T12:42:53.907Z,23.11
2019-05-23T12:45:24.219Z,24.40
2019-05-23T12:47:59.350Z,21.77
2019-05-23T12:50:34.222Z,23.34
2019-05-23T12:53:04.868Z,23.73
2019-05-23T12:55:35.144Z,23.86
2019-05-23T12:58:05.826Z,21.95
2019-05-23T13:00:51.570Z,23.77
2019-05-23T13:03:22.320Z,22.15
2019-05-23T13:05:52.631Z,21.35
2019-05-23T13:08:23.054Z,23.48
2019-05-23T13:10:53.289Z,22.06
2019-05-23T13:13:24.260Z,22.68
2019-05-23T13:15:55.185Z,24.52
2019-05-23T13:18:26.408Z,22.16
2019-05-23T13:20:59.468Z,21.03
2019-05-23T13:23:28.769Z,21.94
2019-05-23T13:25:59.041Z,21.83
2019-05-23T13:28:29.411Z,20.81
2019-05-23T13:31:00.001Z,21.07
2019-05-23T13:33:30.422Z,21.63
2019-05-23T13:36:00.782Z,22.02
2019-05-23T13:38:31.582Z,21.90
2019-05-23T13:41:02.132Z,21.82
2019-05-23T13:43:32.765Z,21.53
2019-05-23T13:46:02.982Z,20.62
2019-05-23T13:48:33.337Z,21.24
2019-05-23T13:51:03.649Z,20.97
2019-05-23T13:53:33.995Z,21.04
2019-05-23T13:56:04.493Z,20.27
2019-05-23T13:58:34.986Z,21.58
2019-05-23T14:01:09.297Z,21.80
2019-05-23T14:03:37.800Z,21.15
2019-05-23T14:06:08.590Z,19.96
2019-05-23T14:08:38.918Z,20.15
2019-05-23T14:11:09.203Z,19.79
2019-05-23T14:13:39.578Z,19.81
2019-05-23T14:16:09.931Z,21.07
2019-05-23T14:18:40.704Z,20.39
2019-05-23T14:21:11.028Z,20.29
2019-05-23T14:23:41.994Z,20.63
2019-05-23T14:26:13.774Z,18.73
2019-05-23T14:28:44.353Z,19.55
2019-05-23T14:31:16.549Z,20.08
2019-05-23T14:34:14.676Z,20.96
2019-05-23T14:37:02.928Z,20.48
2019-05-23T14:39:37.131Z,18.79
2019-05-23T14:42:23.812Z,18.79
2019-05-23T14:44:54.195Z,19.14
2019-05-23T14:47:44.901Z,18.59
2019-05-23T14:50:28.362Z,20.57
2019-05-23T14:52:59.068Z,20.63
2019-05-23T14:55:29.894Z,18.93
2019-05-23T14:58:00.527Z,19.81
2019-05-23T15:00:31.258Z,19.67
2019-05-23T15:03:01.640Z,19.87
2019-05-23T15:05:32.324Z,20.96
2019-05-23T15:08:02.635Z,19.63
2019-05-23T15:10:33.485Z,19.53
2019-05-23T15:13:04.256Z,20.27
2019-05-23T15:15:34.703Z,18.98
2019-05-23T15:18:05.233Z,19.76
2019-05-23T15:20:35.614Z,20.07
2019-05-23T15:23:06.014Z,18.00
2019-05-23T15:25:36.274Z,19.50
2019-05-23T15:28:07.384Z,18.80
2019-05-23T15:30:37.664Z,17.39
2019-05-23T15:33:07.945Z,19.61
2019-05-23T15:35:38.317Z,18.99
2019-05-23T15:38:08.698Z,18.87
2019-05-23T15:40:38.944Z,19.22
2019-05-23T15:43:10.305Z,18.19
2019-05-23T15:45:40.722Z,17.89
2019-05-23T15:48:10.933Z,17.83
2019-05-23T15:50:49.158Z,18.96
2019-05-23T15:53:37.409Z,19.27
2019-05-23T15:56:26.953Z,18.34
2019-05-23T15:59:11.850Z,17.59
2019-05-23T16:01:51.771Z,17.40
2019-05-23T16:04:22.099Z,16.85
2019-05-23T16:06:52.605Z,17.79
2019-05-23T16:09:30.178Z,17.99
2019-05-23T16:11:55.613Z,17.42
2019-05-23T16:14:26.778Z,17.53
2019-05-23T16:16:57.338Z,17.74
2019-05-23T16:19:27.713Z,18.80
2019-05-23T16:21:58.389Z,17.99
2019-05-23T16:24:28.841Z,17.34
2019-05-23T16:26:59.062Z,17.77
2019-05-23T16:29:30.453Z,18.70
2019-05-23T16:32:00.684Z,18.67
2019-05-23T16:34:30.993Z,18.95
2019-05-23T16:37:01.187Z,19.12
2019-05-23T16:39:45.832Z,18.06
2019-05-23T16:42:05.655Z,20.58
2019-05-23T16:44:36.887Z,18.07
2019-05-23T16:47:07.274Z,17.62
2019-05-23T16:49:37.877Z,17.55
2019-05-23T16:52:08.634Z,19.10
2019-05-23T16:54:42.744Z,17.85
2019-05-23T16:57:38.652Z,19.61
2019-05-23T17:00:26.538Z,18.27
2019-05-23T17:03:11.903Z,18.85
2019-05-23T17:05:52.142Z,17.84
2019-05-23T17:08:41.442Z,18.89
2019-05-23T17:11:29.804Z,18.90
2019-05-23T17:14:08.278Z,19.37
2019-05-23T17:17:05.221Z,19.42
2019-05-23T17:19:41.677Z,20.82
2019-05-23T17:22:26.558Z,21.23
2019-05-23T17:25:21.919Z,20.38
2019-05-23T17:28:06.146Z,20.85
2019-05-23T17:30:49.926Z,21.53
2019-05-23T17:33:21.320Z,22.38
2019-05-23T17:35:51.530Z,21.19
2019-05-23T17:38:22.437Z,22.04
2019-05-23T17:40:52.692Z,22.03
2019-05-23T17:43:23.263Z,24.06
2019-05-23T17:45:53.636Z,24.00
2019-05-23T17:48:23.908Z,24.90
2019-05-23T17:50:54.113Z,25.38
2019-05-23T17:53:24.461Z,26.14
2019-05-23T17:55:54.938Z,30.46
2019-05-23T17:58:25.304Z,34.50
2019-05-23T18:00:56.318Z,39.40
2019-05-23T18:03:26.606Z,42.38
2019-05-23T18:05:57.956Z,45.32
2019-05-23T18:08:29.645Z,47.82
2019-05-23T18:11:00.921Z,49.28
2019-05-23T18:13:31.267Z,50.51
2019-05-23T18:16:02.237Z,53.77
2019-05-23T18:18:33.232Z,52.54
2019-05-23T18:21:04.812Z,56.13
2019-05-23T18:23:36.703Z,56.65
2019-05-23T18:26:07.979Z,56.03
2019-05-23T18:28:39.245Z,57.40
2019-05-23T18:31:16.650Z,60.06
2019-05-23T18:33:47.216Z,59.38
2019-05-23T18:36:17.433Z,61.69
2019-05-23T18:38:48.773Z,62.24
2019-05-23T18:41:19.605Z,62.95
2019-05-23T18:43:50.748Z,66.12
2019-05-23T18:46:27.349Z,65.47
2019-05-23T18:48:58.088Z,66.82
2019-05-23T18:51:28.894Z,67.74
2019-05-23T18:54:00.798Z,69.06
2019-05-23T18:56:31.100Z,70.36
2019-05-23T18:59:03.040Z,70.58
2019-05-23T19:01:34.157Z,72.34
2019-05-23T19:04:05.325Z,72.00
2019-05-23T19:06:36.137Z,73.87
2019-05-23T19:09:11.773Z,74.74
2019-05-23T19:11:42.442Z,74.42
2019-05-23T19:14:12.713Z,75.70
2019-05-23T19:16:43.710Z,75.25
2019-05-23T19:19:14.731Z,77.55
2019-05-23T19:21:46.837Z,78.61
2019-05-23T19:24:17.153Z,78.73
2019-05-23T19:26:48.586Z,77.14
2019-05-23T19:29:19.348Z,77.93
2019-05-23T19:31:49.575Z,79.66
2019-05-23T19:34:20.272Z,81.45
2019-05-23T19:36:50.555Z,81.32
2019-05-23T19:39:20.920Z,85.05
2019-05-23T19:41:51.298Z,85.80
2019-05-23T19:44:21.599Z,84.92
2019-05-23T19:46:51.964Z,87.86
2019-05-23T19:49:22.649Z,88.27
2019-05-23T19:51:52.853Z,89.20
2019-05-23T19:54:23.738Z,92.65
2019-05-23T19:56:54.115Z,92.39
2019-05-23T19:59:24.488Z,94.16
2019-05-23T20:02:11.027Z,93.90
2019-05-23T20:04:44.366Z,94.49
2019-05-23T20:07:15.780Z,96.98
2019-05-23T20:09:46.393Z,96.59
2019-05-23T20:12:16.646Z,98.99
2019-05-23T20:14:46.920Z,99.38
2019-05-23T20:17:17.528Z,99.53
2019-05-23T20:19:50.252Z,98.91
2019-05-23T20:22:19.804Z,100.00
2019-05-23T20:24:50.140Z,100.00
2019-05-23T20:27:20.443Z,100.00
2019-05-23T20:29:50.796Z,100.00
2019-05-23T20:32:21.498Z,100.00
2019-05-23T20:34:51.791Z,100.00
2019-05-23T20:37:22.740Z,100.00
2019-05-23T20:39:53.074Z,100.00
2019-05-23T20:42:23.338Z,100.00
2019-05-23T20:44:53.581Z,100.00
2019-05-23T20:47:24.892Z,100.00
2019-05-23T20:49:55.145Z,100.00
2019-05-23T20:52:25.428Z,100.00
2019-05-23T20:54:55.710Z,100.00
2019-05-23T20:57:25.976Z,100.00
2019-05-23T20:59:56.438Z,100.00
2019-05-23T21:02:26.817Z,100.00
2019-05-23T21:04:57.240Z,100.00
2019-05-23T21:07:27.799Z,100.00
2019-05-23T21:09:58.071Z,100.00
2019-05-23T21:12:30.318Z,100.00
2019-05-23T21:15:00.233Z,100.00
2019-05-23T21:17:30.640Z,100.00
2019-05-23T21:20:00.896Z,100.00
2019-05-23T21:22:31.478Z,100.00
2019-05-23T21:25:01.820Z,100.00
2019-05-23T21:27:32.128Z,100.00
2019-05-23T21:30:02.308Z,100.00
2019-05-23T21:32:32.692Z,100.00
2019-05-23T21:35:02.938Z,100.00
2019-05-23T21:37:33.227Z,100.00
2019-05-23T21:40:03.661Z,100.00
2019-05-23T21:42:47.190Z,100.00
2019-05-23T21:45:06.738Z,100.00
2019-05-23T21:47:36.990Z,100.00
2019-05-23T21:50:07.458Z,100.00
2019-05-23T21:52:37.734Z,100.00
2019-05-23T21:55:08.098Z,100.00
2019-05-23T21:57:38.449Z,100.00
2019-05-23T22:00:12.019Z,100.00
2019-05-23T22:02:44.117Z,100.00
2019-05-23T22:05:16.929Z,100.00
2019-05-23T22:07:47.665Z,100.00
2019-05-23T22:10:18.413Z,100.00
2019-05-23T22:13:03.305Z,100.00
2019-05-23T22:15:36.319Z,100.00
2019-05-23T22:18:07.612Z,100.00
2019-05-23T22:20:38.243Z,100.00
2019-05-23T22:23:08.571Z,100.00
2019-05-23T22:25:39.853Z,100.00
2019-05-23T22:28:10.087Z,100.00
2019-05-23T22:30:40.296Z,100.00
2019-05-23T22:33:10.687Z,100.00
2019-05-23T22:35:40.964Z,100.00
2019-05-23T22:38:11.241Z,100.00
2019-05-23T22:40:41.707Z,100.00
2019-05-23T22:43:20.810Z,100.00
2019-05-23T22:45:43.902Z,100.00
2019-05-23T22:48:14.481Z,100.00
2019-05-23T22:50:44.757Z,100.00
2019-05-23T22:53:15.941Z,100.00
2019-05-23T22:55:46.584Z,100.00
2019-05-23T22:58:16.802Z,100.00
2019-05-23T23:00:48.943Z,100.00
2019-05-23T23:03:19.372Z,100.00
2019-05-23T23:05:49.681Z,100.00
2019-05-23T23:08:20.755Z,100.00
2019-05-23T23:10:52.105Z,100.00
2019-05-23T23:13:37.699Z,100.00
2019-05-23T23:15:55.289Z,100.00
2019-05-23T23:18:25.579Z,100.00
2019-05-23T23:20:55.870Z,100.00
2019-05-23T23:23:26.126Z,100.00
2019-05-23T23:25:56.721Z,100.00
2019-05-23T23:28:27.087Z,100.00
2019-05-23T23:30:57.900Z,100.00
2019-05-23T23:33:28.181Z,100.00
2019-05-23T23:35:58.495Z,100.00
2019-05-23T23:38:29.006Z,100.00
2019-05-23T23:40:59.243Z,100.00
2019-05-23T23:43:29.780Z,100.00
2019-05-23T23:46:17.821Z,100.00
2019-05-23T23:49:06.299Z,100.00
2019-05-23T23:51:54.427Z,100.00
2019-05-23T23:54:43.313Z,100.00
2019-05-23T23:57:31.386Z,100.00
